createdAt,value
2022-12-01T00:01:21.523Z,4.80
2022-12-01T00:03:49.048Z,4.90
2022-12-01T00:06:20.879Z,4.60
2022-12-01T00:09:09.375Z,5.05
2022-12-01T00:11:37.795Z,5.40
2022-12-01T00:14:05.530Z,5.25
2022-12-01T00:16:33.622Z,4.43
2022-12-01T00:19:00.895Z,4.60
2022-12-01T00:21:28.507Z,4.97
2022-12-01T00:23:57.701Z,4.70
2022-12-01T00:26:26.698Z,5.00
2022-12-01T00:28:56.064Z,5.07
2022-12-01T00:31:23.605Z,5.00
2022-12-01T00:33:50.791Z,5.65
2022-12-01T00:36:18.109Z,5.13
2022-12-01T00:38:45.179Z,5.63
2022-12-01T00:41:12.258Z,5.40
2022-12-01T00:43:39.885Z,5.72
2022-12-01T00:46:06.993Z,5.60
2022-12-01T00:48:34.074Z,5.60
2022-12-01T00:51:01.469Z,5.60
2022-12-01T00:53:28.482Z,5.20
2022-12-01T00:55:55.550Z,6.03
2022-12-01T00:58:23.730Z,5.80
2022-12-01T01:00:58.288Z,6.00
2022-12-01T01:03:26.406Z,5.60
2022-12-01T01:05:53.598Z,5.30
2022-12-01T01:08:20.835Z,5.20
2022-12-01T01:10:49.233Z,5.82
2022-12-01T01:13:16.428Z,6.10
2022-12-01T01:15:43.480Z,5.88
2022-12-01T01:18:12.083Z,5.47
2022-12-01T01:20:39.246Z,5.57
2022-12-01T01:23:06.190Z,6.17
2022-12-01T01:25:34.063Z,6.00
2022-12-01T01:28:01.060Z,5.05
2022-12-01T01:30:28.637Z,5.35
2022-12-01T01:32:55.645Z,4.90
2022-12-01T01:35:22.626Z,5.28
2022-12-01T01:37:51.007Z,6.00
2022-12-01T01:40:18.620Z,6.23
2022-12-01T01:42:45.670Z,6.15
2022-12-01T01:45:28.699Z,6.70
2022-12-01T01:47:59.071Z,6.80
2022-12-01T01:50:29.156Z,6.00
2022-12-01T01:53:02.946Z,6.07
2022-12-01T01:55:32.016Z,5.90
2022-12-01T01:58:00.108Z,5.43
2022-12-01T02:00:27.163Z,5.90
2022-12-01T02:02:54.458Z,6.38
2022-12-01T02:05:24.989Z,6.32
2022-12-01T02:07:55.188Z,6.05
2022-12-01T02:10:29.782Z,8.00
2022-12-01T02:13:27.379Z,10.30
2022-12-01T02:16:15.023Z,12.27
2022-12-01T02:19:00.103Z,11.40
2022-12-01T02:22:14.532Z,11.70
2022-12-01T02:25:02.272Z,11.85
2022-12-01T02:27:37.852Z,12.18
2022-12-01T02:30:08.022Z,11.70
2022-12-01T02:32:56.678Z,11.43
2022-12-01T02:35:29.420Z,11.30
2022-12-01T02:38:24.243Z,11.93
2022-12-01T02:41:20.501Z,12.05
2022-12-01T02:43:54.841Z,12.50
2022-12-01T02:46:34.136Z,12.18
2022-12-01T02:49:11.478Z,11.73
2022-12-01T02:51:42.160Z,12.60
2022-12-01T02:54:09.541Z,12.40
2022-12-01T02:56:36.471Z,12.30
2022-12-01T02:59:11.134Z,12.63
2022-12-01T03:01:43.580Z,12.48
2022-12-01T03:04:25.521Z,12.50
2022-12-01T03:07:11.028Z,12.30
2022-12-01T03:09:44.222Z,11.75
2022-12-01T03:12:40.002Z,12.50
2022-12-01T03:15:19.923Z,12.45
2022-12-01T03:18:34.480Z,12.48
2022-12-01T03:21:24.491Z,11.88
2022-12-01T03:23:56.558Z,11.33
2022-12-01T03:26:25.723Z,12.40
2022-12-01T03:29:00.358Z,12.48
2022-12-01T03:31:33.058Z,12.77
2022-12-01T03:34:09.895Z,12.60
2022-12-01T03:36:50.193Z,11.93
2022-12-01T03:39:24.126Z,12.15
2022-12-01T03:41:57.087Z,11.90
2022-12-01T03:44:31.006Z,12.10
2022-12-01T03:47:06.418Z,11.60
2022-12-01T03:49:34.319Z,12.13
2022-12-01T03:52:20.082Z,12.30
2022-12-01T03:55:16.749Z,12.05
2022-12-01T03:58:06.000Z,12.00
2022-12-01T04:00:33.430Z,11.30
2022-12-01T04:03:05.756Z,12.38
2022-12-01T04:05:34.060Z,11.50
2022-12-01T04:08:01.698Z,11.00
2022-12-01T04:10:28.811Z,12.32
2022-12-01T04:12:59.570Z,12.47
2022-12-01T04:15:27.413Z,11.60
2022-12-01T04:17:54.726Z,11.80
2022-12-01T04:20:22.258Z,11.20
2022-12-01T04:22:49.546Z,11.53
2022-12-01T04:25:16.683Z,11.32
2022-12-01T04:27:43.602Z,11.00
2022-12-01T04:30:11.408Z,12.00
2022-12-01T04:32:39.951Z,10.85
2022-12-01T04:35:08.830Z,12.45
2022-12-01T04:37:36.161Z,11.80
2022-12-01T04:40:03.572Z,11.70
2022-12-01T04:42:30.530Z,10.55
2022-12-01T04:44:57.954Z,12.10
2022-12-01T04:47:24.919Z,11.27
2022-12-01T04:49:52.443Z,10.10
2022-12-01T04:52:19.384Z,10.80
2022-12-01T04:54:46.346Z,11.10
2022-12-01T04:57:13.402Z,10.52
2022-12-01T04:59:40.394Z,10.60
2022-12-01T05:02:07.979Z,10.00
2022-12-01T05:04:38.727Z,9.95
2022-12-01T05:07:06.245Z,10.40
2022-12-01T05:09:33.259Z,9.77
2022-12-01T05:12:00.321Z,10.35
2022-12-01T05:14:27.394Z,9.50
2022-12-01T05:16:55.217Z,8.95
2022-12-01T05:19:40.684Z,8.77
2022-12-01T05:22:07.640Z,8.57
2022-12-01T05:24:34.613Z,8.50
2022-12-01T05:27:01.518Z,8.35
2022-12-01T05:29:28.506Z,8.90
2022-12-01T05:31:55.494Z,8.43
2022-12-01T05:34:22.611Z,8.65
2022-12-01T05:36:49.521Z,8.40
2022-12-01T05:39:16.634Z,8.20
2022-12-01T05:41:43.561Z,8.40
2022-12-01T05:44:10.573Z,8.68
2022-12-01T05:46:37.492Z,7.68
2022-12-01T05:49:04.522Z,8.20
2022-12-01T05:51:31.519Z,8.23
2022-12-01T05:54:01.332Z,8.38
2022-12-01T05:56:28.285Z,9.05
2022-12-01T05:58:55.322Z,8.23
2022-12-01T06:01:22.374Z,7.82
2022-12-01T06:03:49.465Z,8.33
2022-12-01T06:06:16.454Z,9.02
2022-12-01T06:08:43.493Z,9.60
2022-12-01T06:11:10.435Z,9.70
2022-12-01T06:13:37.545Z,9.80
2022-12-01T06:16:06.427Z,9.80
2022-12-01T06:18:38.303Z,10.30
2022-12-01T06:21:06.700Z,9.60
2022-12-01T06:23:33.801Z,9.75
2022-12-01T06:26:00.857Z,9.30
2022-12-01T06:28:27.859Z,9.93
2022-12-01T06:31:01.052Z,9.27
2022-12-01T06:33:30.205Z,9.20
2022-12-01T06:36:04.995Z,9.65
2022-12-01T06:38:33.787Z,8.80
2022-12-01T06:41:01.502Z,9.38
2022-12-01T06:43:29.150Z,8.90
2022-12-01T06:46:01.756Z,9.30
2022-12-01T06:48:29.911Z,9.45
2022-12-01T06:51:01.071Z,8.82
2022-12-01T06:53:29.376Z,8.60
2022-12-01T06:56:03.593Z,8.63
2022-12-01T06:58:31.982Z,8.90
2022-12-01T07:00:59.378Z,9.05
2022-12-01T07:03:27.327Z,9.13
2022-12-01T07:05:59.996Z,8.77
2022-12-01T07:08:31.713Z,9.50
2022-12-01T07:11:01.766Z,8.52
2022-12-01T07:13:33.481Z,9.10
2022-12-01T07:16:04.911Z,8.95
2022-12-01T07:18:33.098Z,9.55
2022-12-01T07:21:04.508Z,8.90
2022-12-01T07:23:31.936Z,9.50
2022-12-01T07:26:18.468Z,9.30
2022-12-01T07:28:45.791Z,9.05
2022-12-01T07:31:18.405Z,10.00
2022-12-01T07:33:46.055Z,8.50
2022-12-01T07:36:14.438Z,9.73
2022-12-01T07:38:42.251Z,8.82
2022-12-01T07:41:11.527Z,8.63
2022-12-01T07:43:38.682Z,9.48
2022-12-01T07:46:20.348Z,9.50
2022-12-01T07:48:49.664Z,8.90
2022-12-01T07:51:17.324Z,9.20
2022-12-01T07:53:49.368Z,8.50
2022-12-01T07:56:17.083Z,9.10
2022-12-01T07:58:44.432Z,9.05
2022-12-01T08:01:22.920Z,9.77
2022-12-01T08:03:51.805Z,10.00
2022-12-01T08:06:19.567Z,10.23
2022-12-01T08:08:47.307Z,9.75
2022-12-01T08:11:20.214Z,9.52
2022-12-01T08:13:47.535Z,10.38
2022-12-01T08:16:18.675Z,9.30
2022-12-01T08:18:46.045Z,9.77
2022-12-01T08:21:15.982Z,9.82
2022-12-01T08:23:44.024Z,9.90
2022-12-01T08:26:16.909Z,10.10
2022-12-01T08:28:44.770Z,10.32
2022-12-01T08:31:24.565Z,10.25
2022-12-01T08:33:52.442Z,10.07
2022-12-01T08:36:21.030Z,10.93
2022-12-01T08:38:50.266Z,11.20
2022-12-01T08:41:18.022Z,10.30
2022-12-01T08:44:01.631Z,11.00
2022-12-01T08:46:32.641Z,10.55
2022-12-01T08:49:00.166Z,10.73
2022-12-01T08:51:27.567Z,10.60
2022-12-01T08:53:56.618Z,10.30
2022-12-01T08:56:32.800Z,11.05
2022-12-01T08:59:00.358Z,10.57
2022-12-01T09:01:27.572Z,11.30
2022-12-01T09:04:10.492Z,11.50
2022-12-01T09:06:45.557Z,12.05
2022-12-01T09:09:16.479Z,12.35
2022-12-01T09:11:44.040Z,11.23
2022-12-01T09:14:12.468Z,12.73
2022-12-01T09:16:40.878Z,11.93
2022-12-01T09:19:08.145Z,11.90
2022-12-01T09:21:37.397Z,11.80
2022-12-01T09:24:06.149Z,10.85
2022-12-01T09:26:33.907Z,11.85
2022-12-01T09:29:04.452Z,11.35
2022-12-01T09:31:31.505Z,11.68
2022-12-01T09:34:01.370Z,11.82
2022-12-01T09:36:30.480Z,12.18
2022-12-01T09:38:58.177Z,11.30
2022-12-01T09:41:44.452Z,11.60
2022-12-01T09:44:14.489Z,11.93
2022-12-01T09:46:49.187Z,11.50
2022-12-01T09:49:24.364Z,11.95
2022-12-01T09:51:53.663Z,12.30
2022-12-01T09:54:21.105Z,12.05
2022-12-01T09:56:53.048Z,12.18
2022-12-01T09:59:23.903Z,12.77
2022-12-01T10:02:02.848Z,13.48
2022-12-01T10:04:44.234Z,13.33
2022-12-01T10:07:31.843Z,11.95
2022-12-01T10:10:26.924Z,13.50
2022-12-01T10:12:54.500Z,12.48
2022-12-01T10:15:27.732Z,13.68
2022-12-01T10:18:18.011Z,13.30
2022-12-01T10:20:54.476Z,13.90
2022-12-01T10:23:42.579Z,14.60
2022-12-01T10:26:28.763Z,13.35
2022-12-01T10:29:01.447Z,14.50
2022-12-01T10:31:54.256Z,13.43
2022-12-01T10:34:28.611Z,14.20
2022-12-01T10:36:56.926Z,14.15
2022-12-01T10:39:34.083Z,13.38
2022-12-01T10:42:10.608Z,13.77
2022-12-01T10:44:38.159Z,13.50
2022-12-01T10:47:17.974Z,13.02
2022-12-01T10:49:45.134Z,13.05
2022-12-01T10:52:41.837Z,12.77
2022-12-01T10:55:23.974Z,13.70
2022-12-01T10:57:52.513Z,12.37
2022-12-01T11:00:57.434Z,12.70
2022-12-01T11:03:22.045Z,12.90
2022-12-01T11:05:59.782Z,12.98
2022-12-01T11:08:44.698Z,12.63
2022-12-01T11:11:31.893Z,12.35
2022-12-01T11:14:02.034Z,12.20
2022-12-01T11:16:36.524Z,13.25
2022-12-01T11:19:27.796Z,12.17
2022-12-01T11:22:01.402Z,11.80
2022-12-01T11:24:44.966Z,11.60
2022-12-01T11:27:18.540Z,12.00
2022-12-01T11:29:49.301Z,12.48
2022-12-01T11:32:22.742Z,11.95
2022-12-01T11:34:54.002Z,12.50
2022-12-01T11:37:24.847Z,13.30
2022-12-01T11:39:53.020Z,12.13
2022-12-01T11:42:25.876Z,13.55
2022-12-01T11:44:54.825Z,12.55
2022-12-01T11:47:26.837Z,12.68
2022-12-01T11:50:23.920Z,13.40
2022-12-01T11:52:51.077Z,13.20
2022-12-01T11:55:18.382Z,12.05
2022-12-01T11:57:49.864Z,12.25
2022-12-01T12:00:20.124Z,11.68
2022-12-01T12:03:14.626Z,11.98
2022-12-01T12:06:39.423Z,11.68
2022-12-01T12:09:09.024Z,12.43
2022-12-01T12:11:44.554Z,12.60
2022-12-01T12:14:32.534Z,12.40
2022-12-01T12:17:22.200Z,12.50
2022-12-01T12:20:11.511Z,12.50
2022-12-01T12:23:16.483Z,12.97
2022-12-01T12:25:55.368Z,11.00
2022-12-01T12:29:13.820Z,11.32
2022-12-01T12:32:06.982Z,10.88
2022-12-01T12:34:50.427Z,11.20
2022-12-01T12:37:42.099Z,10.88
2022-12-01T12:40:26.719Z,11.50
2022-12-01T12:43:05.843Z,9.90
2022-12-01T12:45:54.499Z,11.18
2022-12-01T12:49:19.209Z,10.85
2022-12-01T12:52:12.772Z,10.52
2022-12-01T12:55:06.170Z,11.10
2022-12-01T12:57:43.677Z,10.63
2022-12-01T13:00:23.660Z,11.93
2022-12-01T13:03:04.884Z,9.95
2022-12-01T13:06:01.516Z,9.70
2022-12-01T13:08:59.346Z,10.45
2022-12-01T13:11:35.281Z,10.10
2022-12-01T13:14:30.967Z,9.85
2022-12-01T13:17:05.591Z,9.00
2022-12-01T13:19:36.839Z,9.95
2022-12-01T13:22:07.273Z,9.20
2022-12-01T13:24:34.729Z,9.60
2022-12-01T13:27:10.975Z,11.10
2022-12-01T13:29:44.328Z,10.93
2022-12-01T13:32:28.600Z,11.05
2022-12-01T13:34:56.501Z,11.85
2022-12-01T13:37:41.952Z,11.85
2022-12-01T13:40:30.467Z,10.88
2022-12-01T13:43:10.767Z,13.18
2022-12-01T13:45:40.079Z,10.20
2022-12-01T13:48:30.124Z,11.00
2022-12-01T13:51:02.582Z,11.27
2022-12-01T13:53:31.141Z,11.20
2022-12-01T13:56:18.265Z,11.50
2022-12-01T13:58:54.094Z,10.50
2022-12-01T14:01:21.723Z,10.65
2022-12-01T14:03:56.799Z,10.88
2022-12-01T14:06:31.445Z,10.85
2022-12-01T14:09:14.987Z,11.35
2022-12-01T14:11:56.221Z,11.65
2022-12-01T14:14:26.444Z,11.68
2022-12-01T14:16:57.019Z,12.38
2022-12-01T14:19:37.377Z,11.60
2022-12-01T14:22:27.775Z,12.40
2022-12-01T14:24:56.036Z,12.50
2022-12-01T14:27:40.778Z,12.20
2022-12-01T14:30:42.388Z,13.00
2022-12-01T14:33:40.056Z,13.45
2022-12-01T14:36:08.200Z,13.45
2022-12-01T14:38:35.561Z,13.27
2022-12-01T14:41:09.996Z,14.27
2022-12-01T14:44:00.077Z,14.07
2022-12-01T14:46:29.671Z,13.90
2022-12-01T14:48:58.805Z,13.60
2022-12-01T14:51:33.047Z,13.40
2022-12-01T14:54:04.258Z,13.73
2022-12-01T14:56:33.379Z,14.23
2022-12-01T14:59:13.661Z,13.07
2022-12-01T15:01:41.587Z,13.85
2022-12-01T15:04:08.663Z,14.80
2022-12-01T15:06:37.655Z,14.30
2022-12-01T15:12:03.746Z,14.38
2022-12-01T15:14:34.706Z,14.30
2022-12-01T15:17:05.222Z,13.55
2022-12-01T15:19:35.369Z,13.60
2022-12-01T15:22:14.974Z,13.45
2022-12-01T15:24:43.121Z,15.43
2022-12-01T15:27:36.607Z,13.95
2022-12-01T15:30:05.480Z,13.82
2022-12-01T15:32:37.970Z,14.10
2022-12-01T15:35:07.118Z,12.73
2022-12-01T15:37:43.320Z,12.48
2022-12-01T15:43:14.522Z,13.73
2022-12-01T15:45:55.553Z,12.70
2022-12-01T15:48:41.697Z,15.23
2022-12-01T15:51:19.075Z,13.82
2022-12-01T15:53:54.098Z,13.73
2022-12-01T15:56:31.576Z,13.70
2022-12-01T15:59:09.922Z,12.73
2022-12-01T16:01:37.703Z,14.02
2022-12-01T16:04:16.318Z,13.43
2022-12-01T16:06:51.590Z,12.82
2022-12-01T16:09:23.675Z,13.02
2022-12-01T16:12:09.507Z,14.20
2022-12-01T16:14:37.260Z,13.38
2022-12-01T16:17:08.574Z,14.27
2022-12-01T16:19:36.303Z,13.67
2022-12-01T16:22:12.142Z,13.00
2022-12-01T16:24:55.174Z,14.88
2022-12-01T16:27:30.295Z,13.80
2022-12-01T16:30:06.387Z,13.60
2022-12-01T16:32:39.397Z,13.73
2022-12-01T16:35:27.466Z,15.13
2022-12-01T16:37:55.319Z,14.35
2022-12-01T16:40:22.641Z,14.50
2022-12-01T16:42:50.146Z,14.63
2022-12-01T16:45:18.446Z,14.88
2022-12-01T16:47:47.807Z,15.80
2022-12-01T16:50:19.987Z,14.30
2022-12-01T16:52:47.536Z,14.80
2022-12-01T16:55:26.220Z,14.95
2022-12-01T16:57:53.618Z,15.57
2022-12-01T17:00:21.277Z,14.63
2022-12-01T17:02:48.518Z,15.68
2022-12-01T17:05:15.666Z,15.00
2022-12-01T17:07:42.814Z,15.02
2022-12-01T17:10:10.737Z,17.10
2022-12-01T17:12:37.739Z,15.05
2022-12-01T17:15:05.701Z,19.10
2022-12-01T17:17:32.951Z,16.52
2022-12-01T17:19:59.930Z,15.90
2022-12-01T17:22:27.078Z,14.98
2022-12-01T17:24:55.559Z,14.00
2022-12-01T17:27:23.531Z,14.90
2022-12-01T17:29:50.645Z,15.35
2022-12-01T17:32:17.696Z,15.20
2022-12-01T17:34:44.657Z,15.50
2022-12-01T17:37:16.094Z,16.55
2022-12-01T17:39:46.475Z,16.10
2022-12-01T17:42:13.418Z,15.57
2022-12-01T17:44:40.595Z,15.40
2022-12-01T17:47:07.593Z,15.07
2022-12-01T17:49:36.661Z,16.10
2022-12-01T17:52:07.988Z,16.50
2022-12-01T17:54:35.086Z,15.60
2022-12-01T17:57:02.135Z,14.82
2022-12-01T17:59:29.109Z,15.73
2022-12-01T18:01:56.227Z,14.90
2022-12-01T18:04:23.210Z,16.40
2022-12-01T18:06:53.990Z,15.80
2022-12-01T18:09:22.141Z,15.63
2022-12-01T18:11:49.811Z,16.27
2022-12-01T18:14:17.923Z,15.43
2022-12-01T18:16:45.542Z,16.48
2022-12-01T18:19:13.200Z,15.50
2022-12-01T18:21:40.828Z,16.05
2022-12-01T18:24:11.020Z,15.48
2022-12-01T18:26:40.045Z,16.02
2022-12-01T18:29:12.042Z,15.68
2022-12-01T18:31:40.017Z,15.00
2022-12-01T18:34:08.080Z,15.32
2022-12-01T18:36:37.237Z,15.27
2022-12-01T18:39:06.950Z,14.93
2022-12-01T18:41:35.063Z,15.00
2022-12-01T18:44:03.042Z,15.52
2022-12-01T18:46:30.652Z,15.80
2022-12-01T18:49:02.036Z,15.38
2022-12-01T18:51:30.686Z,15.57
2022-12-01T18:53:59.661Z,15.95
2022-12-01T18:56:27.902Z,16.10
2022-12-01T18:58:56.763Z,15.70
2022-12-01T19:01:26.749Z,19.27
2022-12-01T19:03:58.309Z,16.27
2022-12-01T19:06:26.446Z,16.23
2022-12-01T19:08:53.829Z,16.20
2022-12-01T19:11:21.514Z,16.20
2022-12-01T19:13:49.174Z,15.43
2022-12-01T19:16:19.973Z,15.95
2022-12-01T19:18:47.442Z,16.88
2022-12-01T19:21:18.388Z,16.90
2022-12-01T19:23:46.884Z,16.10
2022-12-01T19:26:16.715Z,16.23
2022-12-01T19:28:45.767Z,16.38
2022-12-01T19:31:19.248Z,16.25
2022-12-01T19:33:47.430Z,18.70
2022-12-01T19:36:17.810Z,16.70
2022-12-01T19:38:45.862Z,17.33
2022-12-01T19:41:14.102Z,17.95
2022-12-01T19:43:42.721Z,16.60
2022-12-01T19:46:13.398Z,17.17
2022-12-01T19:48:41.148Z,16.52
2022-12-01T19:51:16.548Z,16.65
2022-12-01T19:53:43.735Z,16.38
2022-12-01T19:56:11.469Z,16.75
2022-12-01T19:58:38.646Z,16.58
2022-12-01T20:01:11.790Z,16.73
2022-12-01T20:03:40.616Z,16.70
2022-12-01T20:06:28.821Z,15.45
2022-12-01T20:08:58.083Z,16.23
2022-12-01T20:11:25.819Z,17.38
2022-12-01T20:13:53.341Z,16.23
2022-12-01T20:16:22.996Z,16.25
2022-12-01T20:18:51.328Z,16.90
2022-12-01T20:21:24.230Z,16.75
2022-12-01T20:23:59.829Z,16.35
2022-12-01T20:26:33.802Z,17.05
2022-12-01T20:29:25.595Z,17.07
2022-12-01T20:31:54.065Z,16.60
2022-12-01T20:34:25.619Z,16.65
2022-12-01T20:36:53.437Z,17.30
2022-12-01T20:39:21.272Z,17.17
2022-12-01T20:41:49.287Z,17.02
2022-12-01T20:44:17.497Z,19.08
2022-12-01T20:46:48.405Z,18.48
2022-12-01T20:49:17.491Z,17.85
2022-12-01T20:51:45.368Z,18.30
2022-12-01T20:54:30.430Z,17.55
2022-12-01T20:56:58.444Z,17.65
2022-12-01T20:59:25.702Z,18.90
2022-12-01T21:01:52.897Z,17.08
2022-12-01T21:04:20.133Z,18.40
2022-12-01T21:06:47.351Z,18.50
2022-12-01T21:09:15.054Z,16.75
2022-12-01T21:12:08.948Z,17.40
2022-12-01T21:14:45.428Z,17.00
2022-12-01T21:17:46.822Z,18.02
2022-12-01T21:20:28.747Z,17.10
2022-12-01T21:23:08.903Z,18.02
2022-12-01T21:25:39.102Z,16.80
2022-12-01T21:28:27.088Z,16.38
2022-12-01T21:31:14.825Z,15.45
2022-12-01T21:33:42.693Z,17.45
2022-12-01T21:36:30.901Z,16.40
2022-12-01T21:39:11.044Z,16.50
2022-12-01T21:41:38.284Z,15.63
2022-12-01T21:44:16.573Z,15.02
2022-12-01T21:46:44.477Z,15.07
2022-12-01T21:49:20.215Z,14.90
2022-12-01T21:51:50.270Z,18.05
2022-12-01T21:54:20.725Z,17.25
2022-12-01T21:56:49.486Z,16.58
2022-12-01T21:59:20.402Z,15.13
2022-12-01T22:01:52.955Z,15.05
2022-12-01T22:04:22.583Z,16.58
2022-12-01T22:06:52.639Z,15.65
2022-12-01T22:09:25.395Z,16.63
2022-12-01T22:12:22.478Z,14.77
2022-12-01T22:14:50.867Z,15.38
2022-12-01T22:17:20.697Z,15.57
2022-12-01T22:19:58.140Z,15.73
2022-12-01T22:22:27.647Z,15.15
2022-12-01T22:25:00.190Z,16.13
2022-12-01T22:27:32.255Z,15.53
2022-12-01T22:30:00.807Z,15.20
2022-12-01T22:32:39.721Z,16.10
2022-12-01T22:35:32.460Z,16.02
2022-12-01T22:38:11.428Z,15.60
2022-12-01T22:40:42.914Z,15.50
2022-12-01T22:43:15.915Z,16.50
2022-12-01T22:45:45.022Z,15.93
2022-12-01T22:48:37.522Z,15.85
2022-12-01T22:51:13.908Z,17.25
2022-12-01T22:53:42.228Z,16.07
2022-12-01T22:56:31.049Z,15.23
2022-12-01T22:58:58.330Z,16.02
2022-12-01T23:01:25.340Z,16.13
2022-12-01T23:04:24.281Z,15.90
2022-12-01T23:06:53.012Z,15.70
2022-12-01T23:09:21.858Z,16.70
2022-12-01T23:11:55.141Z,15.38
2022-12-01T23:14:23.595Z,15.02
2022-12-01T23:16:56.562Z,15.13
2022-12-01T23:19:23.650Z,15.35
2022-12-01T23:21:52.884Z,15.80
2022-12-01T23:24:20.006Z,16.25
2022-12-01T23:26:47.379Z,14.52
2022-12-01T23:29:14.455Z,14.75
2022-12-01T23:31:41.526Z,16.88
2022-12-01T23:34:15.314Z,16.65
2022-12-01T23:36:43.856Z,15.93
2022-12-01T23:39:13.779Z,15.30
2022-12-01T23:41:46.934Z,16.90
2022-12-01T23:44:22.319Z,16.70
2022-12-01T23:46:52.107Z,16.60
2022-12-01T23:49:32.975Z,17.10
2022-12-01T23:52:02.230Z,15.20
2022-12-01T23:54:34.510Z,16.17
2022-12-01T23:57:16.862Z,15.52
2022-12-01T23:59:44.839Z,14.82
